sensor_id;sensor_type;location;lat;lon;timestamp;P1;durP1;ratioP1;P2;durP2;ratioP2
82479;SDS011;72105;46.112;12.902;2024-01-07T00:01:48;0.10;;;0.10;;
82479;SDS011;72105;46.112;12.902;2024-01-07T00:04:15;0.10;;;0.10;;
82479;SDS011;72105;46.112;12.902;2024-01-07T00:06:41;0.35;;;0.10;;
82479;SDS011;72105;46.112;12.902;2024-01-07T00:09:08;0.10;;;0.10;;
82479;SDS011;72105;46.112;12.902;2024-01-07T00:11:34;0.10;;;0.10;;
82479;SDS011;72105;46.112;12.902;2024-01-07T00:14:00;0.13;;;0.13;;
82479;SDS011;72105;46.112;12.902;2024-01-07T00:16:26;0.20;;;0.20;;
82479;SDS011;72105;46.112;12.902;2024-01-07T00:18:52;0.20;;;0.20;;
82479;SDS011;72105;46.112;12.902;2024-01-07T00:21:18;0.20;;;0.20;;
82479;SDS011;72105;46.112;12.902;2024-01-07T00:23:44;0.10;;;0.10;;
82479;SDS011;72105;46.112;12.902;2024-01-07T00:26:10;0.10;;;0.10;;
82479;SDS011;72105;46.112;12.902;2024-01-07T00:28:37;0.65;;;0.10;;
82479;SDS011;72105;46.112;12.902;2024-01-07T00:31:03;0.17;;;0.10;;
82479;SDS011;72105;46.112;12.902;2024-01-07T00:33:30;0.10;;;0.10;;
82479;SDS011;72105;46.112;12.902;2024-01-07T00:35:56;0.13;;;0.13;;
82479;SDS011;72105;46.112;12.902;2024-01-07T00:38:22;0.20;;;0.20;;
82479;SDS011;72105;46.112;12.902;2024-01-07T00:40:48;0.30;;;0.30;;
82479;SDS011;72105;46.112;12.902;2024-01-07T00:43:14;0.50;;;0.30;;
82479;SDS011;72105;46.112;12.902;2024-01-07T00:45:40;0.50;;;0.10;;
82479;SDS011;72105;46.112;12.902;2024-01-07T00:48:06;0.03;;;0.03;;
82479;SDS011;72105;46.112;12.902;2024-01-07T00:50:33;0.10;;;0.10;;
82479;SDS011;72105;46.112;12.902;2024-01-07T00:52:59;0.13;;;0.13;;
82479;SDS011;72105;46.112;12.902;2024-01-07T00:55:25;0.10;;;0.10;;
82479;SDS011;72105;46.112;12.902;2024-01-07T00:57:51;0.10;;;0.10;;
82479;SDS011;72105;46.112;12.902;2024-01-07T01:00:17;0.20;;;0.13;;
82479;SDS011;72105;46.112;12.902;2024-01-07T01:02:44;0.20;;;0.20;;
82479;SDS011;72105;46.112;12.902;2024-01-07T01:05:10;0.30;;;0.20;;
82479;SDS011;72105;46.112;12.902;2024-01-07T01:07:36;0.13;;;0.10;;
82479;SDS011;72105;46.112;12.902;2024-01-07T01:10:02;0.10;;;0.10;;
82479;SDS011;72105;46.112;12.902;2024-01-07T01:12:28;0.20;;;0.10;;
82479;SDS011;72105;46.112;12.902;2024-01-07T01:14:54;0.15;;;0.10;;
82479;SDS011;72105;46.112;12.902;2024-01-07T01:17:22;0.10;;;0.10;;
82479;SDS011;72105;46.112;12.902;2024-01-07T01:19:48;0.22;;;0.22;;
82479;SDS011;72105;46.112;12.902;2024-01-07T01:22:14;0.30;;;0.30;;
82479;SDS011;72105;46.112;12.902;2024-01-07T01:24:40;0.20;;;0.20;;
82479;SDS011;72105;46.112;12.902;2024-01-07T01:27:07;0.50;;;0.30;;
82479;SDS011;72105;46.112;12.902;2024-01-07T01:29:33;0.20;;;0.20;;
82479;SDS011;72105;46.112;12.902;2024-01-07T01:31:59;0.60;;;0.40;;
82479;SDS011;72105;46.112;12.902;2024-01-07T01:34:29;1.13;;;0.60;;
82479;SDS011;72105;46.112;12.902;2024-01-07T01:36:55;0.50;;;0.30;;
82479;SDS011;72105;46.112;12.902;2024-01-07T01:39:21;0.25;;;0.25;;
82479;SDS011;72105;46.112;12.902;2024-01-07T01:41:47;0.47;;;0.20;;
82479;SDS011;72105;46.112;12.902;2024-01-07T01:44:14;0.22;;;0.20;;
82479;SDS011;72105;46.112;12.902;2024-01-07T01:46:40;0.30;;;0.10;;
82479;SDS011;72105;46.112;12.902;2024-01-07T01:49:06;0.10;;;0.10;;
82479;SDS011;72105;46.112;12.902;2024-01-07T01:51:33;0.10;;;0.10;;
82479;SDS011;72105;46.112;12.902;2024-01-07T01:53:59;0.00;;;0.00;;
82479;SDS011;72105;46.112;12.902;2024-01-07T01:56:27;0.10;;;0.10;;
82479;SDS011;72105;46.112;12.902;2024-01-07T01:58:53;0.05;;;0.05;;
82479;SDS011;72105;46.112;12.902;2024-01-07T02:01:19;0.00;;;0.00;;
82479;SDS011;72105;46.112;12.902;2024-01-07T02:03:45;1.02;;;0.10;;
82479;SDS011;72105;46.112;12.902;2024-01-07T02:06:11;0.08;;;0.08;;
82479;SDS011;72105;46.112;12.902;2024-01-07T02:08:38;0.03;;;0.03;;
82479;SDS011;72105;46.112;12.902;2024-01-07T02:11:21;0.00;;;0.00;;
82479;SDS011;72105;46.112;12.902;2024-01-07T02:13:48;0.10;;;0.10;;
82479;SDS011;72105;46.112;12.902;2024-01-07T02:16:14;0.00;;;0.00;;
82479;SDS011;72105;46.112;12.902;2024-01-07T02:18:41;0.00;;;0.00;;
82479;SDS011;72105;46.112;12.902;2024-01-07T02:21:08;0.00;;;0.00;;
82479;SDS011;72105;46.112;12.902;2024-01-07T02:23:35;0.00;;;0.00;;
82479;SDS011;72105;46.112;12.902;2024-01-07T02:26:01;0.10;;;0.10;;
82479;SDS011;72105;46.112;12.902;2024-01-07T02:28:27;0.00;;;0.00;;
82479;SDS011;72105;46.112;12.902;2024-01-07T02:30:53;0.10;;;0.10;;
82479;SDS011;72105;46.112;12.902;2024-01-07T02:33:19;0.28;;;0.10;;
82479;SDS011;72105;46.112;12.902;2024-01-07T02:35:45;0.00;;;0.00;;
82479;SDS011;72105;46.112;12.902;2024-01-07T02:38:11;0.05;;;0.05;;
82479;SDS011;72105;46.112;12.902;2024-01-07T02:40:37;0.10;;;0.10;;
82479;SDS011;72105;46.112;12.902;2024-01-07T02:43:04;0.10;;;0.10;;
82479;SDS011;72105;46.112;12.902;2024-01-07T02:45:30;0.10;;;0.10;;
82479;SDS011;72105;46.112;12.902;2024-01-07T02:47:56;0.20;;;0.20;;
82479;SDS011;72105;46.112;12.902;2024-01-07T02:50:22;0.00;;;0.00;;
82479;SDS011;72105;46.112;12.902;2024-01-07T02:52:48;0.00;;;0.00;;
82479;SDS011;72105;46.112;12.902;2024-01-07T02:55:14;1.02;;;0.10;;
82479;SDS011;72105;46.112;12.902;2024-01-07T02:57:40;0.00;;;0.00;;
82479;SDS011;72105;46.112;12.902;2024-01-07T03:00:07;0.10;;;0.10;;
82479;SDS011;72105;46.112;12.902;2024-01-07T03:02:33;0.10;;;0.10;;
82479;SDS011;72105;46.112;12.902;2024-01-07T03:04:59;0.45;;;0.45;;
82479;SDS011;72105;46.112;12.902;2024-01-07T03:07:25;0.28;;;0.10;;
82479;SDS011;72105;46.112;12.902;2024-01-07T03:09:51;0.08;;;0.08;;
82479;SDS011;72105;46.112;12.902;2024-01-07T03:12:17;0.00;;;0.00;;
82479;SDS011;72105;46.112;12.902;2024-01-07T03:14:43;0.00;;;0.00;;
82479;SDS011;72105;46.112;12.902;2024-01-07T03:17:10;0.00;;;0.00;;
82479;SDS011;72105;46.112;12.902;2024-01-07T03:19:39;0.55;;;0.17;;
82479;SDS011;72105;46.112;12.902;2024-01-07T03:22:06;0.10;;;0.10;;
82479;SDS011;72105;46.112;12.902;2024-01-07T03:24:33;0.10;;;0.10;;
82479;SDS011;72105;46.112;12.902;2024-01-07T03:26:59;0.60;;;0.17;;
82479;SDS011;72105;46.112;12.902;2024-01-07T03:29:25;0.10;;;0.10;;
82479;SDS011;72105;46.112;12.902;2024-01-07T03:31:51;0.10;;;0.08;;
82479;SDS011;72105;46.112;12.902;2024-01-07T03:34:18;0.20;;;0.13;;
82479;SDS011;72105;46.112;12.902;2024-01-07T03:36:44;0.10;;;0.10;;
82479;SDS011;72105;46.112;12.902;2024-01-07T03:39:11;0.10;;;0.10;;
82479;SDS011;72105;46.112;12.902;2024-01-07T03:41:37;0.13;;;0.13;;
82479;SDS011;72105;46.112;12.902;2024-01-07T03:44:03;0.65;;;0.20;;
82479;SDS011;72105;46.112;12.902;2024-01-07T03:46:29;0.30;;;0.20;;
82479;SDS011;72105;46.112;12.902;2024-01-07T03:48:55;0.10;;;0.10;;
82479;SDS011;72105;46.112;12.902;2024-01-07T03:51:21;0.10;;;0.10;;
82479;SDS011;72105;46.112;12.902;2024-01-07T03:53:48;0.00;;;0.00;;
82479;SDS011;72105;46.112;12.902;2024-01-07T03:56:14;0.10;;;0.10;;
82479;SDS011;72105;46.112;12.902;2024-01-07T03:58:40;0.10;;;0.10;;
82479;SDS011;72105;46.112;12.902;2024-01-07T04:01:06;1.08;;;0.10;;
82479;SDS011;72105;46.112;12.902;2024-01-07T04:03:34;0.10;;;0.10;;
82479;SDS011;72105;46.112;12.902;2024-01-07T04:06:00;0.13;;;0.13;;
82479;SDS011;72105;46.112;12.902;2024-01-07T04:08:26;0.95;;;0.10;;
82479;SDS011;72105;46.112;12.902;2024-01-07T04:10:53;0.10;;;0.10;;
82479;SDS011;72105;46.112;12.902;2024-01-07T04:13:19;0.10;;;0.10;;
82479;SDS011;72105;46.112;12.902;2024-01-07T04:15:45;0.10;;;0.10;;
82479;SDS011;72105;46.112;12.902;2024-01-07T04:18:11;0.30;;;0.10;;
82479;SDS011;72105;46.112;12.902;2024-01-07T04:20:38;0.30;;;0.30;;
82479;SDS011;72105;46.112;12.902;2024-01-07T04:23:04;0.10;;;0.10;;
82479;SDS011;72105;46.112;12.902;2024-01-07T04:25:30;0.00;;;0.00;;
82479;SDS011;72105;46.112;12.902;2024-01-07T04:27:56;0.17;;;0.17;;
82479;SDS011;72105;46.112;12.902;2024-01-07T04:30:22;0.15;;;0.15;;
82479;SDS011;72105;46.112;12.902;2024-01-07T04:32:48;0.40;;;0.40;;
82479;SDS011;72105;46.112;12.902;2024-01-07T04:35:14;0.10;;;0.10;;
82479;SDS011;72105;46.112;12.902;2024-01-07T04:37:41;0.10;;;0.10;;
82479;SDS011;72105;46.112;12.902;2024-01-07T04:40:08;0.10;;;0.10;;
82479;SDS011;72105;46.112;12.902;2024-01-07T04:42:34;0.60;;;0.60;;
82479;SDS011;72105;46.112;12.902;2024-01-07T04:45:00;0.10;;;0.10;;
82479;SDS011;72105;46.112;12.902;2024-01-07T04:47:27;0.03;;;0.03;;
82479;SDS011;72105;46.112;12.902;2024-01-07T04:49:54;0.10;;;0.10;;
82479;SDS011;72105;46.112;12.902;2024-01-07T04:52:21;0.10;;;0.10;;
82479;SDS011;72105;46.112;12.902;2024-01-07T04:54:47;0.40;;;0.20;;
82479;SDS011;72105;46.112;12.902;2024-01-07T04:57:13;0.15;;;0.15;;
82479;SDS011;72105;46.112;12.902;2024-01-07T04:59:40;0.20;;;0.20;;
82479;SDS011;72105;46.112;12.902;2024-01-07T05:02:06;0.10;;;0.10;;
82479;SDS011;72105;46.112;12.902;2024-01-07T05:04:32;0.47;;;0.20;;
82479;SDS011;72105;46.112;12.902;2024-01-07T05:06:58;0.20;;;0.20;;
82479;SDS011;72105;46.112;12.902;2024-01-07T05:09:24;0.25;;;0.25;;
82479;SDS011;72105;46.112;12.902;2024-01-07T05:11:50;0.28;;;0.10;;
82479;SDS011;72105;46.112;12.902;2024-01-07T05:14:16;0.85;;;0.55;;
82479;SDS011;72105;46.112;12.902;2024-01-07T05:16:42;0.20;;;0.20;;
82479;SDS011;72105;46.112;12.902;2024-01-07T05:19:08;0.40;;;0.40;;
82479;SDS011;72105;46.112;12.902;2024-01-07T05:21:34;0.85;;;0.20;;
82479;SDS011;72105;46.112;12.902;2024-01-07T05:24:00;1.48;;;0.40;;
82479;SDS011;72105;46.112;12.902;2024-01-07T05:26:26;0.57;;;0.50;;
82479;SDS011;72105;46.112;12.902;2024-01-07T05:28:53;0.40;;;0.35;;
82479;SDS011;72105;46.112;12.902;2024-01-07T05:31:19;0.82;;;0.52;;
82479;SDS011;72105;46.112;12.902;2024-01-07T05:33:45;0.30;;;0.30;;
82479;SDS011;72105;46.112;12.902;2024-01-07T05:36:12;0.20;;;0.20;;
82479;SDS011;72105;46.112;12.902;2024-01-07T05:38:38;0.10;;;0.10;;
82479;SDS011;72105;46.112;12.902;2024-01-07T05:41:04;0.47;;;0.20;;
82479;SDS011;72105;46.112;12.902;2024-01-07T05:43:30;0.10;;;0.10;;
82479;SDS011;72105;46.112;12.902;2024-01-07T05:45:56;0.20;;;0.20;;
82479;SDS011;72105;46.112;12.902;2024-01-07T05:48:25;0.40;;;0.28;;
82479;SDS011;72105;46.112;12.902;2024-01-07T05:50:52;0.10;;;0.10;;
82479;SDS011;72105;46.112;12.902;2024-01-07T05:53:18;0.10;;;0.10;;
82479;SDS011;72105;46.112;12.902;2024-01-07T05:55:44;0.30;;;0.20;;
82479;SDS011;72105;46.112;12.902;2024-01-07T05:58:11;0.20;;;0.20;;
82479;SDS011;72105;46.112;12.902;2024-01-07T06:00:37;0.32;;;0.25;;
82479;SDS011;72105;46.112;12.902;2024-01-07T06:03:03;0.20;;;0.20;;
82479;SDS011;72105;46.112;12.902;2024-01-07T06:05:30;0.20;;;0.20;;
82479;SDS011;72105;46.112;12.902;2024-01-07T06:07:56;0.20;;;0.20;;
82479;SDS011;72105;46.112;12.902;2024-01-07T06:10:22;0.10;;;0.10;;
82479;SDS011;72105;46.112;12.902;2024-01-07T06:12:48;1.10;;;0.20;;
82479;SDS011;72105;46.112;12.902;2024-01-07T06:15:14;0.38;;;0.20;;
82479;SDS011;72105;46.112;12.902;2024-01-07T06:17:40;0.10;;;0.10;;
82479;SDS011;72105;46.112;12.902;2024-01-07T06:20:07;0.10;;;0.10;;
82479;SDS011;72105;46.112;12.902;2024-01-07T06:22:33;0.10;;;0.10;;
82479;SDS011;72105;46.112;12.902;2024-01-07T06:24:59;0.10;;;0.10;;
82479;SDS011;72105;46.112;12.902;2024-01-07T06:27:25;0.10;;;0.10;;
82479;SDS011;72105;46.112;12.902;2024-01-07T06:29:51;0.20;;;0.20;;
82479;SDS011;72105;46.112;12.902;2024-01-07T06:32:17;0.10;;;0.10;;
82479;SDS011;72105;46.112;12.902;2024-01-07T06:34:43;0.93;;;0.15;;
82479;SDS011;72105;46.112;12.902;2024-01-07T06:37:09;0.10;;;0.10;;
82479;SDS011;72105;46.112;12.902;2024-01-07T06:39:35;0.20;;;0.20;;
82479;SDS011;72105;46.112;12.902;2024-01-07T06:42:03;0.10;;;0.10;;
82479;SDS011;72105;46.112;12.902;2024-01-07T06:44:29;0.10;;;0.10;;
82479;SDS011;72105;46.112;12.902;2024-01-07T06:46:55;0.10;;;0.10;;
82479;SDS011;72105;46.112;12.902;2024-01-07T06:49:21;0.32;;;0.32;;
82479;SDS011;72105;46.112;12.902;2024-01-07T06:51:47;0.20;;;0.20;;
82479;SDS011;72105;46.112;12.902;2024-01-07T06:54:13;0.10;;;0.10;;
82479;SDS011;72105;46.112;12.902;2024-01-07T06:56:39;1.20;;;0.47;;
82479;SDS011;72105;46.112;12.902;2024-01-07T06:59:05;0.35;;;0.20;;
82479;SDS011;72105;46.112;12.902;2024-01-07T07:01:32;0.57;;;0.22;;
82479;SDS011;72105;46.112;12.902;2024-01-07T07:03:58;0.82;;;0.40;;
82479;SDS011;72105;46.112;12.902;2024-01-07T07:06:25;0.95;;;0.30;;
82479;SDS011;72105;46.112;12.902;2024-01-07T07:08:51;0.30;;;0.30;;
82479;SDS011;72105;46.112;12.902;2024-01-07T07:11:17;0.10;;;0.10;;
82479;SDS011;72105;46.112;12.902;2024-01-07T07:13:44;0.28;;;0.20;;
82479;SDS011;72105;46.112;12.902;2024-01-07T07:16:10;0.10;;;0.10;;
82479;SDS011;72105;46.112;12.902;2024-01-07T07:18:37;0.25;;;0.25;;
82479;SDS011;72105;46.112;12.902;2024-01-07T07:21:03;0.20;;;0.20;;
82479;SDS011;72105;46.112;12.902;2024-01-07T07:23:29;0.20;;;0.20;;
82479;SDS011;72105;46.112;12.902;2024-01-07T07:25:55;3.22;;;0.30;;
82479;SDS011;72105;46.112;12.902;2024-01-07T07:28:22;0.28;;;0.28;;
82479;SDS011;72105;46.112;12.902;2024-01-07T07:30:48;0.40;;;0.40;;
82479;SDS011;72105;46.112;12.902;2024-01-07T07:33:14;0.05;;;0.05;;
82479;SDS011;72105;46.112;12.902;2024-01-07T07:35:40;0.50;;;0.50;;
82479;SDS011;72105;46.112;12.902;2024-01-07T07:38:07;0.17;;;0.17;;
82479;SDS011;72105;46.112;12.902;2024-01-07T07:40:33;0.30;;;0.30;;
82479;SDS011;72105;46.112;12.902;2024-01-07T07:42:59;0.20;;;0.20;;
82479;SDS011;72105;46.112;12.902;2024-01-07T07:45:25;0.20;;;0.20;;
82479;SDS011;72105;46.112;12.902;2024-01-07T07:47:51;0.30;;;0.30;;
82479;SDS011;72105;46.112;12.902;2024-01-07T07:50:18;0.30;;;0.30;;
82479;SDS011;72105;46.112;12.902;2024-01-07T07:52:44;0.20;;;0.20;;
82479;SDS011;72105;46.112;12.902;2024-01-07T07:55:10;0.20;;;0.20;;
82479;SDS011;72105;46.112;12.902;2024-01-07T07:57:36;0.50;;;0.43;;
82479;SDS011;72105;46.112;12.902;2024-01-07T08:00:06;0.25;;;0.20;;
82479;SDS011;72105;46.112;12.902;2024-01-07T08:02:33;0.50;;;0.22;;
82479;SDS011;72105;46.112;12.902;2024-01-07T08:04:59;0.30;;;0.30;;
82479;SDS011;72105;46.112;12.902;2024-01-07T08:07:25;0.10;;;0.10;;
82479;SDS011;72105;46.112;12.902;2024-01-07T08:09:51;0.40;;;0.40;;
82479;SDS011;72105;46.112;12.902;2024-01-07T08:12:18;0.47;;;0.30;;
82479;SDS011;72105;46.112;12.902;2024-01-07T08:14:44;0.40;;;0.40;;
82479;SDS011;72105;46.112;12.902;2024-01-07T08:17:10;0.22;;;0.22;;
82479;SDS011;72105;46.112;12.902;2024-01-07T08:19:36;0.40;;;0.40;;
82479;SDS011;72105;46.112;12.902;2024-01-07T08:22:02;0.10;;;0.10;;
82479;SDS011;72105;46.112;12.902;2024-01-07T08:24:29;0.20;;;0.20;;
82479;SDS011;72105;46.112;12.902;2024-01-07T08:26:55;0.30;;;0.20;;
82479;SDS011;72105;46.112;12.902;2024-01-07T08:29:21;0.30;;;0.30;;
82479;SDS011;72105;46.112;12.902;2024-01-07T08:31:48;0.30;;;0.30;;
82479;SDS011;72105;46.112;12.902;2024-01-07T08:34:14;0.20;;;0.20;;
82479;SDS011;72105;46.112;12.902;2024-01-07T08:36:40;0.20;;;0.20;;
82479;SDS011;72105;46.112;12.902;2024-01-07T08:39:07;0.10;;;0.10;;
82479;SDS011;72105;46.112;12.902;2024-01-07T08:41:33;0.47;;;0.30;;
82479;SDS011;72105;46.112;12.902;2024-01-07T08:43:59;0.20;;;0.20;;
82479;SDS011;72105;46.112;12.902;2024-01-07T08:46:25;0.35;;;0.35;;
82479;SDS011;72105;46.112;12.902;2024-01-07T08:48:52;0.52;;;0.40;;
82479;SDS011;72105;46.112;12.902;2024-01-07T08:51:18;1.35;;;1.08;;
82479;SDS011;72105;46.112;12.902;2024-01-07T08:53:46;0.30;;;0.30;;
82479;SDS011;72105;46.112;12.902;2024-01-07T08:56:13;0.70;;;0.50;;
82479;SDS011;72105;46.112;12.902;2024-01-07T08:58:40;0.65;;;0.55;;
82479;SDS011;72105;46.112;12.902;2024-01-07T09:01:07;0.68;;;0.40;;
82479;SDS011;72105;46.112;12.902;2024-01-07T09:03:33;0.43;;;0.32;;
82479;SDS011;72105;46.112;12.902;2024-01-07T09:05:59;0.60;;;0.60;;
82479;SDS011;72105;46.112;12.902;2024-01-07T09:08:25;0.20;;;0.20;;
82479;SDS011;72105;46.112;12.902;2024-01-07T09:10:51;0.50;;;0.50;;
82479;SDS011;72105;46.112;12.902;2024-01-07T09:13:17;0.60;;;0.60;;
82479;SDS011;72105;46.112;12.902;2024-01-07T09:15:43;0.63;;;0.60;;
82479;SDS011;72105;46.112;12.902;2024-01-07T09:18:10;0.85;;;0.65;;
82479;SDS011;72105;46.112;12.902;2024-01-07T09:20:36;1.42;;;0.93;;
82479;SDS011;72105;46.112;12.902;2024-01-07T09:23:02;0.47;;;0.47;;
82479;SDS011;72105;46.112;12.902;2024-01-07T09:25:28;0.40;;;0.40;;
82479;SDS011;72105;46.112;12.902;2024-01-07T09:27:55;0.45;;;0.45;;
82479;SDS011;72105;46.112;12.902;2024-01-07T09:30:21;0.30;;;0.30;;
82479;SDS011;72105;46.112;12.902;2024-01-07T09:32:47;0.25;;;0.25;;
82479;SDS011;72105;46.112;12.902;2024-01-07T09:35:13;0.47;;;0.47;;
82479;SDS011;72105;46.112;12.902;2024-01-07T09:37:39;1.00;;;0.90;;
82479;SDS011;72105;46.112;12.902;2024-01-07T09:40:06;0.40;;;0.40;;
82479;SDS011;72105;46.112;12.902;2024-01-07T09:42:32;0.80;;;0.43;;
82479;SDS011;72105;46.112;12.902;2024-01-07T09:45:02;1.27;;;1.17;;
82479;SDS011;72105;46.112;12.902;2024-01-07T09:47:29;1.70;;;1.00;;
82479;SDS011;72105;46.112;12.902;2024-01-07T09:49:55;1.73;;;1.10;;
82479;SDS011;72105;46.112;12.902;2024-01-07T09:52:21;0.68;;;0.60;;
82479;SDS011;72105;46.112;12.902;2024-01-07T09:54:51;1.50;;;0.90;;
82479;SDS011;72105;46.112;12.902;2024-01-07T09:57:18;1.17;;;0.80;;
82479;SDS011;72105;46.112;12.902;2024-01-07T09:59:44;0.88;;;0.80;;
82479;SDS011;72105;46.112;12.902;2024-01-07T10:02:11;0.65;;;0.60;;
82479;SDS011;72105;46.112;12.902;2024-01-07T10:04:38;0.98;;;0.70;;
82479;SDS011;72105;46.112;12.902;2024-01-07T10:07:04;2.58;;;1.17;;
82479;SDS011;72105;46.112;12.902;2024-01-07T10:09:32;1.60;;;1.17;;
82479;SDS011;72105;46.112;12.902;2024-01-07T10:11:59;1.20;;;0.80;;
82479;SDS011;72105;46.112;12.902;2024-01-07T10:14:25;0.82;;;0.70;;
82479;SDS011;72105;46.112;12.902;2024-01-07T10:16:52;1.05;;;0.70;;
82479;SDS011;72105;46.112;12.902;2024-01-07T10:19:21;0.93;;;0.52;;
82479;SDS011;72105;46.112;12.902;2024-01-07T10:22:01;2.22;;;0.95;;
82479;SDS011;72105;46.112;12.902;2024-01-07T10:24:31;0.50;;;0.43;;
82479;SDS011;72105;46.112;12.902;2024-01-07T10:27:02;0.63;;;0.63;;
82479;SDS011;72105;46.112;12.902;2024-01-07T10:29:28;0.60;;;0.60;;
82479;SDS011;72105;46.112;12.902;2024-01-07T10:31:57;0.43;;;0.43;;
82479;SDS011;72105;46.112;12.902;2024-01-07T10:34:24;0.60;;;0.60;;
82479;SDS011;72105;46.112;12.902;2024-01-07T10:36:53;0.57;;;0.52;;
82479;SDS011;72105;46.112;12.902;2024-01-07T10:39:21;0.47;;;0.40;;
82479;SDS011;72105;46.112;12.902;2024-01-07T10:41:47;0.70;;;0.70;;
82479;SDS011;72105;46.112;12.902;2024-01-07T10:44:13;1.08;;;0.70;;
82479;SDS011;72105;46.112;12.902;2024-01-07T10:46:40;1.20;;;0.50;;
82479;SDS011;72105;46.112;12.902;2024-01-07T10:49:11;0.85;;;0.65;;
82479;SDS011;72105;46.112;12.902;2024-01-07T10:51:40;1.42;;;0.90;;
82479;SDS011;72105;46.112;12.902;2024-01-07T10:54:07;1.08;;;0.93;;
82479;SDS011;72105;46.112;12.902;2024-01-07T10:56:43;1.38;;;1.27;;
82479;SDS011;72105;46.112;12.902;2024-01-07T10:59:11;2.63;;;1.90;;
82479;SDS011;72105;46.112;12.902;2024-01-07T11:01:37;2.20;;;1.60;;
82479;SDS011;72105;46.112;12.902;2024-01-07T11:04:07;2.25;;;1.80;;
82479;SDS011;72105;46.112;12.902;2024-01-07T11:09:19;1.20;;;1.10;;
82479;SDS011;72105;46.112;12.902;2024-01-07T11:11:45;0.68;;;0.60;;
82479;SDS011;72105;46.112;12.902;2024-01-07T11:16:57;1.33;;;0.68;;
82479;SDS011;72105;46.112;12.902;2024-01-07T11:19:23;4.57;;;3.30;;
82479;SDS011;72105;46.112;12.902;2024-01-07T11:21:49;2.80;;;1.42;;
82479;SDS011;72105;46.112;12.902;2024-01-07T11:27:03;0.80;;;0.65;;
82479;SDS011;72105;46.112;12.902;2024-01-07T11:29:31;0.38;;;0.38;;
82479;SDS011;72105;46.112;12.902;2024-01-07T11:31:57;0.75;;;0.55;;
82479;SDS011;72105;46.112;12.902;2024-01-07T11:34:43;0.50;;;0.50;;
82479;SDS011;72105;46.112;12.902;2024-01-07T11:37:12;0.82;;;0.40;;
82479;SDS011;72105;46.112;12.902;2024-01-07T11:39:41;1.10;;;1.00;;
82479;SDS011;72105;46.112;12.902;2024-01-07T11:42:08;0.75;;;0.63;;
82479;SDS011;72105;46.112;12.902;2024-01-07T11:44:35;0.80;;;0.80;;
82479;SDS011;72105;46.112;12.902;2024-01-07T11:47:04;1.83;;;1.02;;
82479;SDS011;72105;46.112;12.902;2024-01-07T11:49:31;0.98;;;0.88;;
82479;SDS011;72105;46.112;12.902;2024-01-07T11:51:58;1.25;;;1.15;;
82479;SDS011;72105;46.112;12.902;2024-01-07T11:54:24;0.50;;;0.50;;
82479;SDS011;72105;46.112;12.902;2024-01-07T11:56:51;0.43;;;0.43;;
82479;SDS011;72105;46.112;12.902;2024-01-07T11:59:17;0.95;;;0.75;;
82479;SDS011;72105;46.112;12.902;2024-01-07T12:01:43;1.63;;;1.10;;
82479;SDS011;72105;46.112;12.902;2024-01-07T12:04:09;0.98;;;0.30;;
82479;SDS011;72105;46.112;12.902;2024-01-07T12:06:37;0.60;;;0.60;;
82479;SDS011;72105;46.112;12.902;2024-01-07T12:09:03;0.32;;;0.32;;
82479;SDS011;72105;46.112;12.902;2024-01-07T12:11:29;0.90;;;0.65;;
82479;SDS011;72105;46.112;12.902;2024-01-07T12:13:56;0.60;;;0.60;;
82479;SDS011;72105;46.112;12.902;2024-01-07T12:16:22;0.55;;;0.50;;
82479;SDS011;72105;46.112;12.902;2024-01-07T12:18:49;1.00;;;1.00;;
82479;SDS011;72105;46.112;12.902;2024-01-07T12:21:21;1.23;;;1.13;;
82479;SDS011;72105;46.112;12.902;2024-01-07T12:23:50;1.52;;;1.30;;
82479;SDS011;72105;46.112;12.902;2024-01-07T12:26:16;2.83;;;0.95;;
82479;SDS011;72105;46.112;12.902;2024-01-07T12:28:44;0.93;;;0.80;;
82479;SDS011;72105;46.112;12.902;2024-01-07T12:31:10;1.80;;;1.13;;
82479;SDS011;72105;46.112;12.902;2024-01-07T12:33:37;1.50;;;1.20;;
82479;SDS011;72105;46.112;12.902;2024-01-07T12:36:05;1.45;;;1.15;;
82479;SDS011;72105;46.112;12.902;2024-01-07T12:38:32;1.13;;;0.80;;
82479;SDS011;72105;46.112;12.902;2024-01-07T12:40:58;1.30;;;1.00;;
82479;SDS011;72105;46.112;12.902;2024-01-07T12:43:24;1.15;;;1.02;;
82479;SDS011;72105;46.112;12.902;2024-01-07T12:45:50;4.22;;;1.90;;
82479;SDS011;72105;46.112;12.902;2024-01-07T12:48:16;1.63;;;1.10;;
82479;SDS011;72105;46.112;12.902;2024-01-07T12:50:42;1.58;;;0.80;;
82479;SDS011;72105;46.112;12.902;2024-01-07T12:53:09;1.05;;;0.80;;
82479;SDS011;72105;46.112;12.902;2024-01-07T12:55:35;2.08;;;1.13;;
82479;SDS011;72105;46.112;12.902;2024-01-07T12:58:01;2.97;;;0.95;;
82479;SDS011;72105;46.112;12.902;2024-01-07T13:00:27;1.70;;;1.15;;
82479;SDS011;72105;46.112;12.902;2024-01-07T13:02:54;1.95;;;1.40;;
82479;SDS011;72105;46.112;12.902;2024-01-07T13:05:20;1.70;;;1.30;;
82479;SDS011;72105;46.112;12.902;2024-01-07T13:07:46;2.83;;;1.67;;
82479;SDS011;72105;46.112;12.902;2024-01-07T13:10:13;2.38;;;1.20;;
82479;SDS011;72105;46.112;12.902;2024-01-07T13:12:39;2.75;;;1.75;;
82479;SDS011;72105;46.112;12.902;2024-01-07T13:15:05;2.05;;;1.08;;
82479;SDS011;72105;46.112;12.902;2024-01-07T13:17:32;2.08;;;1.10;;
82479;SDS011;72105;46.112;12.902;2024-01-07T13:19:58;1.30;;;1.20;;
82479;SDS011;72105;46.112;12.902;2024-01-07T13:22:24;1.55;;;1.30;;
82479;SDS011;72105;46.112;12.902;2024-01-07T13:24:50;1.40;;;1.23;;
82479;SDS011;72105;46.112;12.902;2024-01-07T13:27:17;1.92;;;1.45;;
82479;SDS011;72105;46.112;12.902;2024-01-07T13:29:43;1.30;;;1.00;;
82479;SDS011;72105;46.112;12.902;2024-01-07T13:32:13;1.38;;;1.00;;
82479;SDS011;72105;46.112;12.902;2024-01-07T13:34:48;1.40;;;1.23;;
82479;SDS011;72105;46.112;12.902;2024-01-07T13:37:14;2.15;;;1.40;;
82479;SDS011;72105;46.112;12.902;2024-01-07T13:39:40;1.20;;;1.05;;
82479;SDS011;72105;46.112;12.902;2024-01-07T13:42:06;2.05;;;1.10;;
82479;SDS011;72105;46.112;12.902;2024-01-07T13:44:33;1.30;;;1.20;;
82479;SDS011;72105;46.112;12.902;2024-01-07T13:46:59;2.70;;;1.60;;
82479;SDS011;72105;46.112;12.902;2024-01-07T13:49:30;3.25;;;1.90;;
82479;SDS011;72105;46.112;12.902;2024-01-07T13:51:57;1.90;;;1.40;;
82479;SDS011;72105;46.112;12.902;2024-01-07T13:54:23;2.42;;;1.52;;
82479;SDS011;72105;46.112;12.902;2024-01-07T13:56:49;2.05;;;1.30;;
82479;SDS011;72105;46.112;12.902;2024-01-07T13:59:15;1.42;;;0.88;;
82479;SDS011;72105;46.112;12.902;2024-01-07T14:01:42;1.05;;;0.95;;
82479;SDS011;72105;46.112;12.902;2024-01-07T14:04:08;2.03;;;1.40;;
82479;SDS011;72105;46.112;12.902;2024-01-07T14:06:35;1.60;;;1.27;;
82479;SDS011;72105;46.112;12.902;2024-01-07T14:09:01;2.08;;;1.50;;
82479;SDS011;72105;46.112;12.902;2024-01-07T14:11:28;1.98;;;1.35;;
82479;SDS011;72105;46.112;12.902;2024-01-07T14:13:54;4.88;;;1.85;;
82479;SDS011;72105;46.112;12.902;2024-01-07T14:16:20;24.30;;;8.05;;
82479;SDS011;72105;46.112;12.902;2024-01-07T14:18:46;4.30;;;2.10;;
82479;SDS011;72105;46.112;12.902;2024-01-07T14:21:12;2.42;;;1.38;;
82479;SDS011;72105;46.112;12.902;2024-01-07T14:23:38;2.85;;;2.20;;
82479;SDS011;72105;46.112;12.902;2024-01-07T14:26:04;2.03;;;1.83;;
82479;SDS011;72105;46.112;12.902;2024-01-07T14:28:31;2.63;;;2.13;;
82479;SDS011;72105;46.112;12.902;2024-01-07T14:30:57;4.88;;;4.32;;
82479;SDS011;72105;46.112;12.902;2024-01-07T14:33:23;2.88;;;2.50;;
82479;SDS011;72105;46.112;12.902;2024-01-07T14:35:49;2.40;;;2.00;;
82479;SDS011;72105;46.112;12.902;2024-01-07T14:38:15;2.78;;;2.33;;